Time;durP1;ratioP1;P1;durP2;ratioP2;P2;SDS_P1;SDS_P2;PMS_P1;PMS_P2;Temp;Humidity;BMP_temperature;BMP_pressure;BME280_temperature;BME280_humidity;BME280_pressure;Samples;Min_cycle;Max_cycle;Signal;HPM_P1;HPM_P2
2022/09/25 00:02:01;;;;;;;;;;;;;;;;;;4996575;28;6997;-85
2022/09/25 00:04:28;;;;;;;;;;;;;;;;;;4980742;28;7063;-85
2022/09/25 00:06:54;;;;;;;;;;;;;;;;;;4980249;28;7030;-86
2022/09/25 00:09:22;;;;;;;;;;;;;;;;;;4980219;28;7107;-85
2022/09/25 00:11:48;;;;;;;;;;;;;;;;;;4980221;28;7041;-88
2022/09/25 00:14:13;;;;;;;;;;;;;;;;;;4997218;28;7206;-89
2022/09/25 00:16:39;;;;;;;;;;;;;;;;;;4980297;28;8322;-88
2022/09/25 00:21:51;;;;;;;;;;;;;;;;;;4997729;28;6800;-88
2022/09/25 00:24:17;;;;;;;;;;;;;;;;;;4980091;28;8384;-90
2022/09/25 00:26:43;;;;;;;;;;;;;;;;;;4996189;28;8459;-88
2022/09/25 00:29:17;;;;;;;;;;;;;;;;;;4996220;28;7114;-88
2022/09/25 00:31:43;;;;;;;;;;;;;;;;;;4996060;28;8414;-87
2022/09/25 00:34:09;;;;;;;;;;;;;;;;;;4996318;28;7026;-89
2022/09/25 00:36:34;;;;;;;;;;;;;;;;;;4996109;28;7120;-88
2022/09/25 00:39:00;;;;;;;;;;;;;;;;;;4995651;28;7152;-88
2022/09/25 00:41:30;;;;;;;;;;;;;;;;;;4996105;28;7206;-88
2022/09/25 00:43:57;;;;;;;;;;;;;;;;;;4996306;28;8473;-86
2022/09/25 00:46:31;;;;;;;;;;;;;;;;;;4996040;28;7253;-89
2022/09/25 00:49:11;;;;;;;;;;;;;;;;;;4995283;28;7165;-89
2022/09/25 00:51:45;;;;;;;;;;;;;;;;;;4996006;28;8293;-89
2022/09/25 00:54:40;;;;;;;;;;;;;;;;;;4995853;28;7227;-88
2022/09/25 00:57:08;;;;;;;;;;;;;;;;;;4970756;28;8424;-87
2022/09/25 00:59:41;;;;;;;;;;;;;;;;;;4996036;28;7147;-86
2022/09/25 01:02:12;;;;;;;;;;;;;;;;;;4995867;28;8925;-88
2022/09/25 01:04:41;;;;;;;;;;;;;;;;;;4995910;28;7111;-88
2022/09/25 01:07:08;;;;;;;;;;;;;;;;;;4995925;28;7116;-88
2022/09/25 01:09:34;;;;;;;;;;;;;;;;;;4995130;28;8478;-88
2022/09/25 01:12:00;;;;;;;;;;;;;;;;;;4995651;28;8322;-87
2022/09/25 01:14:26;;;;;;;;;;;;;;;;;;4979036;28;7275;-89
2022/09/25 01:17:15;;;;;;;;;;;;;;;;;;4995625;28;7164;-87
2022/09/25 01:19:40;;;;;;;;;;;;;;;;;;4974366;28;7030;-86
2022/09/25 01:22:25;;;;;;;;;;;;;;;;;;4978873;28;8743;-85
2022/09/25 01:24:53;;;;;;;;;;;;;;;;;;4979374;28;8324;-87
2022/09/25 01:27:42;;;;;;;;;;;;;;;;;;4979910;28;7306;-88
2022/09/25 01:30:09;;;;;;;;;;;;;;;;;;4996065;28;7229;-85
2022/09/25 01:32:43;;;;;;;;;;;;;;;;;;4995285;28;7023;-88
2022/09/25 01:35:08;;;;;;;;;;;;;;;;;;4995182;28;8447;-87
2022/09/25 01:37:40;;;;;;;;;;;;;;;;;;4979177;28;7084;-87
2022/09/25 01:40:13;;;;;;;;;;;;;;;;;;4978887;28;7055;-89
2022/09/25 01:42:48;;;;;;;;;;;;;;;;;;4995914;28;8325;-88
2022/09/25 01:45:20;;;;;;;;;;;;;;;;;;4996478;28;7174;-87
2022/09/25 01:47:49;;;;;;;;;;;;;;;;;;4996200;28;8434;-87
2022/09/25 01:50:20;;;;;;;;;;;;;;;;;;4996431;28;7028;-88
2022/09/25 01:52:51;;;;;;;;;;;;;;;;;;4994930;28;7235;-89
2022/09/25 01:55:29;;;;;;;;;;;;;;;;;;4995167;28;7319;-88
2022/09/25 01:58:02;;;;;;;;;;;;;;;;;;4994669;28;7029;-88
2022/09/25 02:00:27;;;;;;;;;;;;;;;;;;4995267;28;7388;-87
2022/09/25 02:03:01;;;;;;;;;;;;;;;;;;4995420;28;7024;-88
2022/09/25 02:05:33;;;;;;;;;;;;;;;;;;4995640;28;7158;-88
2022/09/25 02:08:03;;;;;;;;;;;;;;;;;;4995598;28;7361;-87
2022/09/25 02:10:33;;;;;;;;;;;;;;;;;;4995192;28;7008;-87
2022/09/25 02:13:07;;;;;;;;;;;;;;;;;;4994586;28;6999;-85
2022/09/25 02:15:51;;;;;;;;;;;;;;;;;;5001829;28;7174;-87
2022/09/25 02:21:11;;;;;;;;;;;;;;;;;;5005018;28;6799;-84
2022/09/25 02:23:57;;;;;;;;;;;;;;;;;;4985035;28;8722;-87
2022/09/25 02:26:29;;;;;;;;;;;;;;;;;;4982651;28;7012;-88
2022/09/25 02:28:55;;;;;;;;;;;;;;;;;;4999302;28;7601;-86
2022/09/25 02:31:27;;;;;;;;;;;;;;;;;;4999054;28;7155;-87
2022/09/25 02:33:53;;;;;;;;;;;;;;;;;;5000355;28;7246;-86
2022/09/25 02:36:22;;;;;;;;;;;;;;;;;;4999504;28;7148;-88
2022/09/25 02:38:50;;;;;;;;;;;;;;;;;;4998816;28;8435;-88
2022/09/25 02:41:28;;;;;;;;;;;;;;;;;;4999449;28;8384;-87
2022/09/25 02:44:06;;;;;;;;;;;;;;;;;;5001350;28;8070;-86
2022/09/25 02:46:34;;;;;;;;;;;;;;;;;;4983375;28;7275;-85
2022/09/25 02:49:18;;;;;;;;;;;;;;;;;;4982962;28;7178;-87
2022/09/25 02:52:04;;;;;;;;;;;;;;;;;;5000538;28;7044;-83
2022/09/25 02:54:42;;;;;;;;;;;;;;;;;;4984563;28;8473;-87
2022/09/25 02:57:16;;;;;;;;;;;;;;;;;;4984684;28;7269;-87
2022/09/25 02:59:51;;;;;;;;;;;;;;;;;;4999614;28;8382;-88
2022/09/25 03:02:18;;;;;;;;;;;;;;;;;;4998460;28;8354;-87
2022/09/25 03:04:47;;;;;;;;;;;;;;;;;;4998309;28;8329;-88
2022/09/25 03:07:15;;;;;;;;;;;;;;;;;;4998168;28;8710;-85
2022/09/25 03:09:45;;;;;;;;;;;;;;;;;;4998727;28;8395;-86
2022/09/25 03:12:12;;;;;;;;;;;;;;;;;;4995677;28;8525;-88
2022/09/25 03:14:37;;;;;;;;;;;;;;;;;;4978623;28;8921;-88
2022/09/25 03:17:06;;;;;;;;;;;;;;;;;;4978381;28;8324;-86
2022/09/25 03:19:33;;;;;;;;;;;;;;;;;;4978986;28;7388;-87
2022/09/25 03:21:59;;;;;;;;;;;;;;;;;;4979525;28;7199;-88
2022/09/25 03:24:25;;;;;;;;;;;;;;;;;;4995306;28;8290;-85
2022/09/25 03:26:52;;;;;;;;;;;;;;;;;;4979138;28;7041;-88
2022/09/25 03:29:18;;;;;;;;;;;;;;;;;;4979743;28;7166;-87
2022/09/25 03:31:44;;;;;;;;;;;;;;;;;;4977867;28;7401;-88
2022/09/25 03:34:14;;;;;;;;;;;;;;;;;;4979152;28;7177;-88
2022/09/25 03:36:40;;;;;;;;;;;;;;;;;;4978472;28;8474;-87
2022/09/25 03:39:06;;;;;;;;;;;;;;;;;;4978062;28;7129;-88
2022/09/25 03:41:34;;;;;;;;;;;;;;;;;;4979013;28;7041;-87
2022/09/25 03:44:00;;;;;;;;;;;;;;;;;;4978011;28;7027;-86
2022/09/25 03:46:27;;;;;;;;;;;;;;;;;;4977812;28;7076;-88
2022/09/25 03:48:54;;;;;;;;;;;;;;;;;;4978094;28;7148;-86
2022/09/25 03:51:20;;;;;;;;;;;;;;;;;;4977290;28;8381;-87
2022/09/25 03:53:48;;;;;;;;;;;;;;;;;;4977437;28;8349;-88
2022/09/25 03:56:15;;;;;;;;;;;;;;;;;;4977855;28;8102;-88
2022/09/25 03:58:41;;;;;;;;;;;;;;;;;;4977854;28;7058;-86
2022/09/25 04:01:09;;;;;;;;;;;;;;;;;;4977733;28;8409;-87
2022/09/25 04:03:35;;;;;;;;;;;;;;;;;;4979639;28;7046;-87
2022/09/25 04:06:05;;;;;;;;;;;;;;;;;;4979122;28;7181;-88
2022/09/25 04:08:31;;;;;;;;;;;;;;;;;;4978563;28;7049;-87
2022/09/25 04:10:58;;;;;;;;;;;;;;;;;;4978701;28;8634;-89
2022/09/25 04:13:25;;;;;;;;;;;;;;;;;;4982054;28;7431;-85
2022/09/25 04:15:51;;;;;;;;;;;;;;;;;;4982777;28;8292;-87
2022/09/25 04:18:17;;;;;;;;;;;;;;;;;;4978949;28;8454;-88
2022/09/25 04:20:43;;;;;;;;;;;;;;;;;;4979172;28;7039;-88
2022/09/25 04:23:10;;;;;;;;;;;;;;;;;;4979376;28;7165;-87
2022/09/25 04:25:35;;;;;;;;;;;;;;;;;;4979220;28;7040;-88
2022/09/25 04:28:01;;;;;;;;;;;;;;;;;;4979703;28;8326;-85
2022/09/25 04:30:28;;;;;;;;;;;;;;;;;;4979920;28;7350;-85
2022/09/25 04:35:37;;;;;;;;;;;;;;;;;;4982531;28;6800;-86
2022/09/25 04:38:03;;;;;;;;;;;;;;;;;;4980633;28;8665;-84
2022/09/25 04:40:30;;;;;;;;;;;;;;;;;;4986643;28;7157;-86
2022/09/25 04:42:58;;;;;;;;;;;;;;;;;;5002466;28;8766;-87
2022/09/25 04:45:25;;;;;;;;;;;;;;;;;;4984099;28;7505;-86
2022/09/25 04:47:52;;;;;;;;;;;;;;;;;;5000495;28;7226;-87
2022/09/25 04:50:19;;;;;;;;;;;;;;;;;;4999672;28;7183;-87
2022/09/25 04:52:44;;;;;;;;;;;;;;;;;;5002995;28;7119;-87
2022/09/25 04:55:09;;;;;;;;;;;;;;;;;;5002774;28;7148;-85
2022/09/25 04:57:35;;;;;;;;;;;;;;;;;;4987950;28;7122;-85
2022/09/25 05:00:01;;;;;;;;;;;;;;;;;;4985481;28;7173;-84
2022/09/25 05:02:27;;;;;;;;;;;;;;;;;;5001602;28;7044;-85
2022/09/25 05:04:53;;;;;;;;;;;;;;;;;;5010306;28;7405;-81
2022/09/25 05:07:18;;;;;;;;;;;;;;;;;;5022971;28;7138;-81
2022/09/25 05:09:44;;;;;;;;;;;;;;;;;;5023204;28;8382;-81
2022/09/25 05:12:09;;;;;;;;;;;;;;;;;;5018554;28;7123;-88
2022/09/25 05:14:35;;;;;;;;;;;;;;;;;;4993231;28;8363;-82
2022/09/25 05:17:00;;;;;;;;;;;;;;;;;;5004016;28;8309;-89
2022/09/25 05:19:26;;;;;;;;;;;;;;;;;;5008835;28;8381;-85
2022/09/25 05:21:52;;;;;;;;;;;;;;;;;;4990594;28;7143;-85
2022/09/25 05:24:18;;;;;;;;;;;;;;;;;;5003820;28;7065;-87
2022/09/25 05:26:44;;;;;;;;;;;;;;;;;;4989494;28;7035;-86
2022/09/25 05:29:09;;;;;;;;;;;;;;;;;;5004740;28;7033;-86
2022/09/25 05:31:38;;;;;;;;;;;;;;;;;;4984134;28;7413;-87
2022/09/25 05:34:04;;;;;;;;;;;;;;;;;;4986992;28;7063;-85
2022/09/25 05:36:29;;;;;;;;;;;;;;;;;;4985067;28;8401;-85
2022/09/25 05:38:55;;;;;;;;;;;;;;;;;;4999354;28;7157;-83
2022/09/25 05:41:20;;;;;;;;;;;;;;;;;;5003666;28;8310;-88
2022/09/25 05:43:46;;;;;;;;;;;;;;;;;;5002142;28;7148;-87
2022/09/25 05:46:12;;;;;;;;;;;;;;;;;;5002294;28;7198;-88
2022/09/25 05:48:37;;;;;;;;;;;;;;;;;;4986976;28;7031;-87
2022/09/25 05:51:03;;;;;;;;;;;;;;;;;;4989803;28;8139;-83
2022/09/25 05:53:31;;;;;;;;;;;;;;;;;;4993421;28;8292;-84
2022/09/25 05:55:58;;;;;;;;;;;;;;;;;;4987365;28;7266;-86
2022/09/25 05:58:25;;;;;;;;;;;;;;;;;;4986832;28;7017;-86
2022/09/25 06:00:50;;;;;;;;;;;;;;;;;;5001501;28;8416;-86
2022/09/25 06:03:17;;;;;;;;;;;;;;;;;;4988170;28;7598;-85
2022/09/25 06:05:45;;;;;;;;;;;;;;;;;;5005635;28;6894;-83
2022/09/25 06:08:10;;;;;;;;;;;;;;;;;;5004477;28;7179;-85
2022/09/25 06:10:36;;;;;;;;;;;;;;;;;;4992936;28;7165;-80
2022/09/25 06:13:03;;;;;;;;;;;;;;;;;;5004476;28;7105;-80
2022/09/25 06:15:34;;;;;;;;;;;;;;;;;;5022885;28;8329;-83
2022/09/25 06:18:00;;;;;;;;;;;;;;;;;;5015033;28;7060;-87
2022/09/25 06:20:26;;;;;;;;;;;;;;;;;;5015231;28;8383;-83
2022/09/25 06:22:52;;;;;;;;;;;;;;;;;;5019214;28;7232;-85
2022/09/25 06:25:18;;;;;;;;;;;;;;;;;;5019363;28;7170;-82
2022/09/25 06:27:43;;;;;;;;;;;;;;;;;;5018718;28;8446;-83
2022/09/25 06:30:09;;;;;;;;;;;;;;;;;;5018285;28;6990;-85
2022/09/25 06:32:34;;;;;;;;;;;;;;;;;;5015205;28;7128;-80
2022/09/25 06:34:59;;;;;;;;;;;;;;;;;;4998456;28;7518;-85
2022/09/25 06:37:25;;;;;;;;;;;;;;;;;;5016530;28;8234;-85
2022/09/25 06:39:50;;;;;;;;;;;;;;;;;;5017192;28;8434;-81
2022/09/25 06:42:16;;;;;;;;;;;;;;;;;;5017546;28;9676;-88
2022/09/25 06:44:42;;;;;;;;;;;;;;;;;;5017120;28;8452;-86
2022/09/25 06:47:11;;;;;;;;;;;;;;;;;;5020267;28;7163;-82
2022/09/25 06:49:36;;;;;;;;;;;;;;;;;;5020692;28;7029;-82
2022/09/25 06:52:03;;;;;;;;;;;;;;;;;;5020248;28;8393;-82
2022/09/25 06:54:29;;;;;;;;;;;;;;;;;;5022451;28;7773;-82
2022/09/25 06:56:55;;;;;;;;;;;;;;;;;;5023078;28;7143;-82
2022/09/25 06:59:21;;;;;;;;;;;;;;;;;;5022772;28;6983;-83
2022/09/25 07:01:46;;;;;;;;;;;;;;;;;;5022688;28;7255;-82
2022/09/25 07:04:12;;;;;;;;;;;;;;;;;;5021310;28;7014;-82
2022/09/25 07:06:37;;;;;;;;;;;;;;;;;;5020113;28;7029;-83
2022/09/25 07:09:03;;;;;;;;;;;;;;;;;;5024838;28;7012;-80
2022/09/25 07:11:32;;;;;;;;;;;;;;;;;;5024712;28;7010;-85
2022/09/25 07:13:58;;;;;;;;;;;;;;;;;;5011904;28;7069;-83
2022/09/25 07:16:28;;;;;;;;;;;;;;;;;;5012848;28;8329;-81
2022/09/25 07:18:56;;;;;;;;;;;;;;;;;;5012508;28;7173;-82
2022/09/25 07:21:23;;;;;;;;;;;;;;;;;;5012223;28;7175;-80
2022/09/25 07:23:51;;;;;;;;;;;;;;;;;;5011244;28;7257;-83
2022/09/25 07:26:22;;;;;;;;;;;;;;;;;;5010531;28;7024;-82
2022/09/25 07:28:53;;;;;;;;;;;;;;;;;;5010413;28;7162;-83
2022/09/25 07:31:21;;;;;;;;;;;;;;;;;;5010833;28;7187;-86
2022/09/25 07:33:47;;;;;;;;;;;;;;;;;;5010473;28;7267;-83
2022/09/25 07:36:14;;;;;;;;;;;;;;;;;;5011405;28;7487;-81
2022/09/25 07:38:40;;;;;;;;;;;;;;;;;;5011646;28;7020;-81
2022/09/25 07:41:07;;;;;;;;;;;;;;;;;;5011179;28;8437;-80
2022/09/25 07:43:33;;;;;;;;;;;;;;;;;;5010701;28;7081;-80
2022/09/25 07:46:00;;;;;;;;;;;;;;;;;;5009657;28;8448;-81
2022/09/25 07:48:26;;;;;;;;;;;;;;;;;;5009480;28;8422;-81
2022/09/25 07:50:53;;;;;;;;;;;;;;;;;;5011604;28;8370;-81
2022/09/25 07:53:19;;;;;;;;;;;;;;;;;;5011455;28;6832;-81
2022/09/25 07:55:46;;;;;;;;;;;;;;;;;;5012360;28;7361;-81
2022/09/25 07:58:12;;;;;;;;;;;;;;;;;;5012213;28;7138;-79
2022/09/25 08:00:39;;;;;;;;;;;;;;;;;;5012249;28;8434;-79
2022/09/25 08:03:06;;;;;;;;;;;;;;;;;;5012209;28;7344;-82
2022/09/25 08:05:32;;;;;;;;;;;;;;;;;;5012179;28;8620;-82
2022/09/25 08:07:57;;;;;;;;;;;;;;;;;;5012228;28;6978;-82
2022/09/25 08:10:23;;;;;;;;;;;;;;;;;;5012259;28;7203;-82
2022/09/25 08:12:48;;;;;;;;;;;;;;;;;;5008549;28;7220;-82
2022/09/25 08:15:15;;;;;;;;;;;;;;;;;;5024793;28;7064;-81
2022/09/25 08:17:41;;;;;;;;;;;;;;;;;;5024662;28;7048;-82
2022/09/25 08:20:07;;;;;;;;;;;;;;;;;;5025194;28;8533;-82
2022/09/25 08:22:33;;;;;;;;;;;;;;;;;;5024195;28;8524;-80
2022/09/25 08:25:02;;;;;;;;;;;;;;;;;;5024453;28;7609;-81
2022/09/25 08:27:30;;;;;;;;;;;;;;;;;;5024849;28;7452;-80
2022/09/25 08:29:56;;;;;;;;;;;;;;;;;;5024725;28;7521;-80
2022/09/25 08:32:21;;;;;;;;;;;;;;;;;;5024639;28;8790;-79
2022/09/25 08:34:47;;;;;;;;;;;;;;;;;;5024743;28;6907;-80
2022/09/25 08:37:14;;;;;;;;;;;;;;;;;;5024757;28;7455;-80
2022/09/25 08:39:39;;;;;;;;;;;;;;;;;;5012758;28;7063;-87
2022/09/25 08:42:05;;;;;;;;;;;;;;;;;;5011980;28;7246;-87
2022/09/25 08:44:37;;;;;;;;;;;;;;;;;;5012123;28;8418;-88
2022/09/25 08:50:01;;;;;;;;;;;;;;;;;;4998101;28;6776;-80
2022/09/25 08:52:27;;;;;;;;;;;;;;;;;;5024289;28;7259;-82
2022/09/25 08:54:53;;;;;;;;;;;;;;;;;;5024184;28;8405;-82
2022/09/25 08:57:22;;;;;;;;;;;;;;;;;;5024399;28;7198;-82
2022/09/25 08:59:54;;;;;;;;;;;;;;;;;;5008356;28;7179;-82
2022/09/25 09:02:22;;;;;;;;;;;;;;;;;;5023912;28;8456;-80
2022/09/25 09:05:00;;;;;;;;;;;;;;;;;;5023564;28;7445;-83
2022/09/25 09:07:34;;;;;;;;;;;;;;;;;;5022812;28;7048;-81
2022/09/25 09:10:12;;;;;;;;;;;;;;;;;;5011665;28;8308;-86
2022/09/25 09:12:37;;;;;;;;;;;;;;;;;;4995535;28;8496;-87
2022/09/25 09:15:15;;;;;;;;;;;;;;;;;;4994997;28;8446;-86
2022/09/25 09:17:42;;;;;;;;;;;;;;;;;;5012097;28;8312;-86
2022/09/25 09:20:18;;;;;;;;;;;;;;;;;;5011308;28;7336;-85
2022/09/25 09:22:52;;;;;;;;;;;;;;;;;;5022863;28;8295;-80
2022/09/25 09:25:24;;;;;;;;;;;;;;;;;;5023219;28;7082;-80
2022/09/25 09:28:08;;;;;;;;;;;;;;;;;;5013777;28;7184;-80
2022/09/25 09:30:43;;;;;;;;;;;;;;;;;;5007630;28;8410;-83
2022/09/25 09:33:12;;;;;;;;;;;;;;;;;;4984085;28;7141;-82
2022/09/25 09:35:56;;;;;;;;;;;;;;;;;;4999428;28;8492;-80
2022/09/25 09:38:35;;;;;;;;;;;;;;;;;;4983384;28;7344;-81
2022/09/25 09:41:09;;;;;;;;;;;;;;;;;;4983173;28;7300;-84
2022/09/25 09:43:43;;;;;;;;;;;;;;;;;;4983353;28;8611;-81
2022/09/25 09:46:12;;;;;;;;;;;;;;;;;;4982695;28;8704;-81
2022/09/25 09:48:57;;;;;;;;;;;;;;;;;;4983640;28;7459;-82
2022/09/25 09:51:31;;;;;;;;;;;;;;;;;;4983767;28;8123;-82
2022/09/25 09:54:04;;;;;;;;;;;;;;;;;;4984204;28;8689;-81
2022/09/25 09:56:31;;;;;;;;;;;;;;;;;;4984331;28;7122;-80
2022/09/25 09:59:13;;;;;;;;;;;;;;;;;;4983301;28;7152;-79
2022/09/25 10:01:41;;;;;;;;;;;;;;;;;;4984062;28;6867;-80
2022/09/25 10:04:15;;;;;;;;;;;;;;;;;;4983657;28;8453;-80
2022/09/25 10:06:47;;;;;;;;;;;;;;;;;;4984255;28;7173;-80
2022/09/25 10:09:16;;;;;;;;;;;;;;;;;;4983336;28;7448;-79
2022/09/25 10:11:47;;;;;;;;;;;;;;;;;;4983921;28;7334;-79
2022/09/25 10:14:19;;;;;;;;;;;;;;;;;;4984407;28;7037;-79
2022/09/25 10:16:51;;;;;;;;;;;;;;;;;;4983980;28;7451;-79
2022/09/25 10:19:20;;;;;;;;;;;;;;;;;;4984071;28;7094;-79
2022/09/25 10:22:06;;;;;;;;;;;;;;;;;;4983739;28;7187;-79
2022/09/25 10:24:51;;;;;;;;;;;;;;;;;;4983733;28;7195;-79
2022/09/25 10:27:21;;;;;;;;;;;;;;;;;;4984045;28;7143;-79
2022/09/25 10:30:00;;;;;;;;;;;;;;;;;;4983633;28;7056;-80
2022/09/25 10:32:25;;;;;;;;;;;;;;;;;;4984109;28;8491;-80
2022/09/25 10:34:52;;;;;;;;;;;;;;;;;;4983583;28;7127;-80
2022/09/25 10:37:20;;;;;;;;;;;;;;;;;;4983251;28;7039;-80
2022/09/25 10:40:00;;;;;;;;;;;;;;;;;;4982992;28;8483;-80
2022/09/25 10:42:32;;;;;;;;;;;;;;;;;;4986133;28;6860;-80
2022/09/25 10:44:57;;;;;;;;;;;;;;;;;;4986932;28;8466;-80
2022/09/25 10:50:11;;;;;;;;;;;;;;;;;;4972318;28;6774;-80
2022/09/25 10:52:48;;;;;;;;;;;;;;;;;;4987499;28;6869;-80
2022/09/25 10:55:19;;;;;;;;;;;;;;;;;;4986885;28;9204;-80
2022/09/25 10:57:47;;;;;;;;;;;;;;;;;;4987118;28;8442;-80
2022/09/25 11:00:20;;;;;;;;;;;;;;;;;;4987094;28;7440;-80
2022/09/25 11:02:52;;;;;;;;;;;;;;;;;;4986774;28;8427;-80
2022/09/25 11:05:20;;;;;;;;;;;;;;;;;;4986797;28;7189;-80
2022/09/25 11:07:55;;;;;;;;;;;;;;;;;;4987275;28;7368;-82
2022/09/25 11:10:25;;;;;;;;;;;;;;;;;;4987200;28;8327;-81
2022/09/25 11:12:51;;;;;;;;;;;;;;;;;;4986905;28;8472;-82
2022/09/25 11:15:20;;;;;;;;;;;;;;;;;;4986919;28;8576;-81
2022/09/25 11:17:49;;;;;;;;;;;;;;;;;;4987066;28;7265;-80
2022/09/25 11:20:15;;;;;;;;;;;;;;;;;;4985639;28;7213;-80
2022/09/25 11:22:46;;;;;;;;;;;;;;;;;;4985979;28;7161;-82
2022/09/25 11:25:35;;;;;;;;;;;;;;;;;;4984889;28;7182;-80
2022/09/25 11:28:10;;;;;;;;;;;;;;;;;;4983210;28;7217;-81
2022/09/25 11:30:43;;;;;;;;;;;;;;;;;;4986379;28;8655;-80
2022/09/25 11:33:26;;;;;;;;;;;;;;;;;;4986710;28;7027;-82
2022/09/25 11:35:58;;;;;;;;;;;;;;;;;;4986385;28;7166;-79
2022/09/25 11:41:22;;;;;;;;;;;;;;;;;;4967979;28;6908;-82
2022/09/25 11:43:50;;;;;;;;;;;;;;;;;;4982277;28;7052;-82
2022/09/25 11:46:42;;;;;;;;;;;;;;;;;;4980917;28;7173;-83
2022/09/25 11:49:17;;;;;;;;;;;;;;;;;;4981331;28;8873;-89
2022/09/25 11:51:52;;;;;;;;;;;;;;;;;;4975213;28;8314;-88
2022/09/25 11:54:28;;;;;;;;;;;;;;;;;;4973921;28;6821;-86
2022/09/25 11:56:57;;;;;;;;;;;;;;;;;;4975071;28;7178;-87
2022/09/25 11:59:25;;;;;;;;;;;;;;;;;;4974027;28;8286;-85
2022/09/25 12:02:12;;;;;;;;;;;;;;;;;;4972892;28;7152;-86
2022/09/25 12:05:08;;;;;;;;;;;;;;;;;;4973866;28;8425;-88
2022/09/25 12:07:56;;;;;;;;;;;;;;;;;;4973615;28;8599;-88
2022/09/25 12:10:25;;;;;;;;;;;;;;;;;;4972520;28;8364;-88
2022/09/25 12:13:11;;;;;;;;;;;;;;;;;;4973290;28;8492;-88
2022/09/25 12:16:00;;;;;;;;;;;;;;;;;;4974034;28;8342;-88
2022/09/25 12:18:46;;;;;;;;;;;;;;;;;;4957716;28;8312;-89
2022/09/25 12:21:14;;;;;;;;;;;;;;;;;;4973109;28;6838;-88
2022/09/25 12:23:42;;;;;;;;;;;;;;;;;;4973537;28;7261;-89
2022/09/25 12:26:23;;;;;;;;;;;;;;;;;;4973578;28;8526;-89
2022/09/25 12:28:57;;;;;;;;;;;;;;;;;;4973511;28;8419;-91
2022/09/25 12:31:41;;;;;;;;;;;;;;;;;;4973798;28;7174;-86
2022/09/25 12:34:10;;;;;;;;;;;;;;;;;;4973277;28;7173;-87
2022/09/25 12:36:43;;;;;;;;;;;;;;;;;;4973860;28;7203;-87
2022/09/25 12:39:41;;;;;;;;;;;;;;;;;;4973437;28;7032;-87
2022/09/25 12:42:18;;;;;;;;;;;;;;;;;;4962224;28;8421;-88
2022/09/25 12:44:55;;;;;;;;;;;;;;;;;;4973447;28;8306;-87
2022/09/25 12:47:40;;;;;;;;;;;;;;;;;;4973278;28;7169;-88
2022/09/25 12:50:15;;;;;;;;;;;;;;;;;;4972923;28;7044;-88
2022/09/25 12:52:55;;;;;;;;;;;;;;;;;;4972686;28;7182;-88
2022/09/25 12:55:30;;;;;;;;;;;;;;;;;;4973079;28;7217;-88
2022/09/25 12:58:11;;;;;;;;;;;;;;;;;;4972964;28;7272;-88
2022/09/25 13:00:41;;;;;;;;;;;;;;;;;;4973287;28;8674;-88
2022/09/25 13:03:14;;;;;;;;;;;;;;;;;;4972975;28;7245;-88
2022/09/25 13:05:43;;;;;;;;;;;;;;;;;;4971862;28;8642;-88
2022/09/25 13:08:13;;;;;;;;;;;;;;;;;;4972710;28;7121;-88
2022/09/25 13:10:49;;;;;;;;;;;;;;;;;;4972511;28;8837;-88
2022/09/25 13:13:19;;;;;;;;;;;;;;;;;;4972256;28;8431;-88
2022/09/25 13:15:52;;;;;;;;;;;;;;;;;;4972708;28;7064;-88
2022/09/25 13:18:20;;;;;;;;;;;;;;;;;;4973084;28;7163;-87
2022/09/25 13:20:47;;;;;;;;;;;;;;;;;;4972512;28;8532;-87
2022/09/25 13:23:16;;;;;;;;;;;;;;;;;;4972618;28;7056;-86
2022/09/25 13:25:56;;;;;;;;;;;;;;;;;;4972562;28;7229;-86
2022/09/25 13:28:25;;;;;;;;;;;;;;;;;;4972860;28;7047;-88
2022/09/25 13:31:20;;;;;;;;;;;;;;;;;;4972697;28;7150;-88
2022/09/25 13:34:02;;;;;;;;;;;;;;;;;;4967904;28;8357;-88
2022/09/25 13:36:37;;;;;;;;;;;;;;;;;;4972337;28;8310;-88
2022/09/25 13:41:59;;;;;;;;;;;;;;;;;;4957514;28;7049;-87
2022/09/25 13:44:40;;;;;;;;;;;;;;;;;;4972662;28;7161;-87
2022/09/25 13:47:21;;;;;;;;;;;;;;;;;;4972138;28;7274;-87
2022/09/25 13:49:50;;;;;;;;;;;;;;;;;;4972357;28;7193;-87
2022/09/25 13:52:29;;;;;;;;;;;;;;;;;;4972169;28;8395;-88
2022/09/25 13:55:07;;;;;;;;;;;;;;;;;;4972232;28;7170;-88
2022/09/25 13:57:51;;;;;;;;;;;;;;;;;;4972802;28;7077;-88
2022/09/25 14:00:17;;;;;;;;;;;;;;;;;;4972571;28;8395;-88
2022/09/25 14:02:45;;;;;;;;;;;;;;;;;;4972746;28;7132;-88
2022/09/25 14:05:16;;;;;;;;;;;;;;;;;;4971548;28;7130;-87
2022/09/25 14:07:43;;;;;;;;;;;;;;;;;;4972573;28;7069;-89
2022/09/25 14:10:09;;;;;;;;;;;;;;;;;;4971860;28;8414;-89
2022/09/25 14:12:47;;;;;;;;;;;;;;;;;;4971337;28;7391;-87
2022/09/25 14:15:21;;;;;;;;;;;;;;;;;;4971675;28;7136;-88
2022/09/25 14:17:49;;;;;;;;;;;;;;;;;;4971019;28;8527;-89
2022/09/25 14:20:27;;;;;;;;;;;;;;;;;;4971162;28;7056;-89
2022/09/25 14:22:55;;;;;;;;;;;;;;;;;;4972257;28;8916;-81
2022/09/25 14:25:22;;;;;;;;;;;;;;;;;;4971713;28;7054;-89
2022/09/25 14:27:52;;;;;;;;;;;;;;;;;;4971440;28;7153;-88
2022/09/25 14:30:19;;;;;;;;;;;;;;;;;;4971094;28;8321;-88
2022/09/25 14:32:48;;;;;;;;;;;;;;;;;;4971472;28;8426;-86
2022/09/25 14:35:28;;;;;;;;;;;;;;;;;;4971166;28;8558;-88
2022/09/25 14:38:10;;;;;;;;;;;;;;;;;;4972062;28;8317;-88
2022/09/25 14:40:40;;;;;;;;;;;;;;;;;;4971601;28;8414;-87
2022/09/25 14:43:15;;;;;;;;;;;;;;;;;;4971227;28;7286;-89
2022/09/25 14:45:47;;;;;;;;;;;;;;;;;;4970705;28;8303;-87
2022/09/25 14:48:17;;;;;;;;;;;;;;;;;;4972126;28;8349;-88
2022/09/25 14:50:47;;;;;;;;;;;;;;;;;;4971814;28;7200;-87
2022/09/25 14:53:20;;;;;;;;;;;;;;;;;;4972066;28;8432;-88
2022/09/25 14:55:51;;;;;;;;;;;;;;;;;;4974436;28;8357;-88
2022/09/25 14:58:25;;;;;;;;;;;;;;;;;;4971456;28;7181;-88
2022/09/25 15:00:54;;;;;;;;;;;;;;;;;;4971446;28;8965;-88
2022/09/25 15:03:25;;;;;;;;;;;;;;;;;;4970520;28;7041;-87
2022/09/25 15:05:51;;;;;;;;;;;;;;;;;;4971114;28;7309;-90
2022/09/25 15:08:22;;;;;;;;;;;;;;;;;;4971099;28;8523;-88
2022/09/25 15:10:59;;;;;;;;;;;;;;;;;;4970925;28;7364;-88
2022/09/25 15:13:32;;;;;;;;;;;;;;;;;;4971108;28;8424;-87
2022/09/25 15:18:43;;;;;;;;;;;;;;;;;;4956759;29;6801;-88
2022/09/25 15:21:29;;;;;;;;;;;;;;;;;;4970097;28;7147;-88
2022/09/25 15:23:59;;;;;;;;;;;;;;;;;;4970701;28;7418;-87
2022/09/25 15:26:27;;;;;;;;;;;;;;;;;;4970101;28;8706;-88
2022/09/25 15:28:52;;;;;;;;;;;;;;;;;;4971344;28;8818;-88
2022/09/25 15:31:18;;;;;;;;;;;;;;;;;;4973288;28;7398;-88
2022/09/25 15:33:44;;;;;;;;;;;;;;;;;;4973404;28;8336;-85
2022/09/25 15:36:19;;;;;;;;;;;;;;;;;;4972751;28;7346;-87
2022/09/25 15:38:51;;;;;;;;;;;;;;;;;;4973141;28;7127;-88
2022/09/25 15:41:17;;;;;;;;;;;;;;;;;;4972825;28;8310;-87
2022/09/25 15:43:42;;;;;;;;;;;;;;;;;;4974364;28;7164;-88
2022/09/25 15:46:08;;;;;;;;;;;;;;;;;;4974723;28;6914;-88
2022/09/25 15:48:38;;;;;;;;;;;;;;;;;;4975145;28;7170;-88
2022/09/25 15:51:13;;;;;;;;;;;;;;;;;;4974547;28;7162;-87
2022/09/25 15:53:42;;;;;;;;;;;;;;;;;;4974702;28;7043;-87
2022/09/25 15:56:21;;;;;;;;;;;;;;;;;;4973761;28;8296;-88
2022/09/25 15:58:52;;;;;;;;;;;;;;;;;;4974127;28;8788;-87
2022/09/25 16:06:57;;;;;;;;;;;;;;;;;;4959297;28;6932;-90
2022/09/25 16:09:31;;;;;;;;;;;;;;;;;;4974028;28;8742;-89
2022/09/25 16:12:15;;;;;;;;;;;;;;;;;;4973615;28;8448;-88
2022/09/25 16:14:41;;;;;;;;;;;;;;;;;;4974181;28;8422;-87
2022/09/25 16:17:16;;;;;;;;;;;;;;;;;;4974018;28;7005;-88
2022/09/25 16:19:41;;;;;;;;;;;;;;;;;;4973499;28;8427;-88
2022/09/25 16:22:21;;;;;;;;;;;;;;;;;;4973758;28;8455;-88
2022/09/25 16:24:49;;;;;;;;;;;;;;;;;;4974085;28;7163;-88
2022/09/25 16:27:32;;;;;;;;;;;;;;;;;;4973224;28;7257;-89
2022/09/25 16:30:01;;;;;;;;;;;;;;;;;;4973811;28;8441;-87
2022/09/25 16:32:28;;;;;;;;;;;;;;;;;;4973496;28;8540;-88
2022/09/25 16:34:59;;;;;;;;;;;;;;;;;;4973474;28;8608;-87
2022/09/25 16:37:28;;;;;;;;;;;;;;;;;;4973405;28;7076;-87
2022/09/25 16:40:08;;;;;;;;;;;;;;;;;;4973518;28;6936;-86
2022/09/25 16:42:41;;;;;;;;;;;;;;;;;;4972906;28;8598;-86
2022/09/25 16:45:14;;;;;;;;;;;;;;;;;;4973452;28;7264;-88
2022/09/25 16:47:41;;;;;;;;;;;;;;;;;;4973502;28;7133;-88
2022/09/25 16:50:09;;;;;;;;;;;;;;;;;;4974935;28;7155;-88
2022/09/25 16:52:35;;;;;;;;;;;;;;;;;;4974887;28;7352;-87
2022/09/25 16:55:07;;;;;;;;;;;;;;;;;;4973704;28;7334;-86
2022/09/25 16:57:34;;;;;;;;;;;;;;;;;;4973953;28;7162;-87
2022/09/25 17:00:00;;;;;;;;;;;;;;;;;;4973470;28;7184;-87
2022/09/25 17:02:32;;;;;;;;;;;;;;;;;;4973276;28;8281;-87
2022/09/25 17:04:59;;;;;;;;;;;;;;;;;;4973549;28;7048;-86
2022/09/25 17:07:25;;;;;;;;;;;;;;;;;;4973022;28;8506;-87
2022/09/25 17:09:51;;;;;;;;;;;;;;;;;;4973048;28;8461;-88
2022/09/25 17:12:21;;;;;;;;;;;;;;;;;;4972672;28;7258;-87
2022/09/25 17:14:48;;;;;;;;;;;;;;;;;;4973681;28;8402;-87
2022/09/25 17:17:16;;;;;;;;;;;;;;;;;;4972958;28;8436;-87
2022/09/25 17:19:42;;;;;;;;;;;;;;;;;;4973450;28;7154;-87
2022/09/25 17:22:08;;;;;;;;;;;;;;;;;;4972645;28;7173;-87
2022/09/25 17:24:34;;;;;;;;;;;;;;;;;;4972783;28;8502;-86
2022/09/25 17:27:00;;;;;;;;;;;;;;;;;;4972096;28;7145;-87
2022/09/25 17:29:26;;;;;;;;;;;;;;;;;;4972261;28;7255;-87
2022/09/25 17:31:52;;;;;;;;;;;;;;;;;;4972116;28;7665;-87
2022/09/25 17:34:27;;;;;;;;;;;;;;;;;;4972630;28;8416;-87
2022/09/25 17:36:54;;;;;;;;;;;;;;;;;;4972919;28;7049;-87
2022/09/25 17:39:20;;;;;;;;;;;;;;;;;;4972786;28;7170;-88
2022/09/25 17:41:45;;;;;;;;;;;;;;;;;;4972401;28;8341;-87
2022/09/25 17:44:15;;;;;;;;;;;;;;;;;;4972376;28;7227;-87
2022/09/25 17:46:42;;;;;;;;;;;;;;;;;;4971933;28;7246;-87
2022/09/25 17:49:07;;;;;;;;;;;;;;;;;;4973896;28;7023;-88
2022/09/25 17:51:34;;;;;;;;;;;;;;;;;;4972362;28;8377;-88
2022/09/25 17:54:01;;;;;;;;;;;;;;;;;;4972429;28;7029;-86